createdAt,value
2019-01-05T00:00:25.621Z,112.30
2019-01-05T00:03:15.808Z,107.63
2019-01-05T00:06:05.289Z,103.77
2019-01-05T00:08:54.798Z,107.93
2019-01-05T00:11:44.359Z,98.60
2019-01-05T00:14:36.864Z,92.87
2019-01-05T00:17:26.903Z,91.47
2019-01-05T00:20:16.879Z,102.10
2019-01-05T00:22:59.351Z,109.43
2019-01-05T00:25:49.050Z,99.70
2019-01-05T00:28:39.518Z,90.67
2019-01-05T00:31:28.871Z,84.60
2019-01-05T00:34:23.706Z,67.77
2019-01-05T00:37:16.658Z,87.37
2019-01-05T00:40:17.143Z,86.47
2019-01-05T00:43:07.723Z,89.97
2019-01-05T00:45:53.407Z,73.10
2019-01-05T00:48:46.330Z,82.60
2019-01-05T00:51:37.987Z,81.10
2019-01-05T00:54:29.289Z,55.53
2019-01-05T00:57:20.468Z,82.53
2019-01-05T01:00:10.212Z,85.63
2019-01-05T01:03:00.029Z,79.67
2019-01-05T01:05:46.739Z,74.10
2019-01-05T01:08:36.009Z,75.90
2019-01-05T01:11:23.043Z,66.60
2019-01-05T01:14:12.989Z,73.83
2019-01-05T01:16:56.517Z,73.83
2019-01-05T01:19:46.435Z,77.73
2019-01-05T01:22:26.507Z,65.03
2019-01-05T01:25:16.495Z,70.40
2019-01-05T01:28:06.280Z,69.03
2019-01-05T01:30:55.890Z,84.03
2019-01-05T01:33:45.647Z,65.97
2019-01-05T01:36:26.705Z,67.27
2019-01-05T01:39:16.168Z,75.80
2019-01-05T01:42:06.111Z,74.20
2019-01-05T01:44:55.766Z,81.10
2019-01-05T01:47:48.169Z,85.93
2019-01-05T01:50:40.490Z,79.87
2019-01-05T01:53:33.269Z,72.73
2019-01-05T01:56:27.032Z,68.43
2019-01-05T01:59:20.013Z,87.43
2019-01-05T02:02:13.589Z,83.07
2019-01-05T02:05:03.597Z,59.20
2019-01-05T02:07:55.324Z,62.63
2019-01-05T02:10:47.215Z,66.13
2019-01-05T02:13:41.080Z,69.93
2019-01-05T02:16:35.128Z,71.93
2019-01-05T02:19:58.998Z,78.13
2019-01-05T02:23:26.625Z,69.77
2019-01-05T02:26:39.387Z,60.60
2019-01-05T02:30:00.547Z,72.40
2019-01-05T02:33:12.939Z,77.00
2019-01-05T02:36:25.563Z,101.13
2019-01-05T02:39:33.106Z,83.20
2019-01-05T02:42:44.743Z,87.60
2019-01-05T02:46:03.695Z,81.13
2019-01-05T02:49:31.179Z,98.93
2019-01-05T02:52:47.058Z,105.70
2019-01-05T02:56:10.388Z,97.83
2019-01-05T02:59:37.119Z,87.60
2019-01-05T03:02:58.220Z,99.20
2019-01-05T03:06:18.975Z,106.90
2019-01-05T03:09:46.589Z,96.40
2019-01-05T03:13:14.295Z,102.10
2019-01-05T03:16:26.799Z,119.27
2019-01-05T03:19:44.249Z,124.27
2019-01-05T03:23:11.698Z,129.13
2019-01-05T03:26:34.125Z,107.80
2019-01-05T03:29:56.901Z,131.93
2019-01-05T03:33:17.825Z,147.13
2019-01-05T03:36:41.269Z,128.93
2019-01-05T03:39:50.733Z,127.87
2019-01-05T03:43:08.672Z,148.03
2019-01-05T03:46:36.216Z,141.63
2019-01-05T03:50:04.303Z,115.00
2019-01-05T03:53:32.354Z,120.47
2019-01-05T03:56:46.912Z,112.27
2019-01-05T04:00:14.508Z,109.00
2019-01-05T04:03:41.986Z,106.50
2019-01-05T04:07:10.029Z,100.13
2019-01-05T04:10:38.739Z,86.60
2019-01-05T04:14:05.015Z,89.90
2019-01-05T04:17:30.559Z,91.97
2019-01-05T04:20:52.884Z,98.80
2019-01-05T04:24:20.360Z,101.30
2019-01-05T04:27:38.626Z,94.13
2019-01-05T04:30:50.032Z,89.60
2019-01-05T04:34:15.682Z,77.70
2019-01-05T04:37:43.386Z,87.53
2019-01-05T04:40:54.790Z,80.93
2019-01-05T04:44:22.771Z,87.07
2019-01-05T04:47:38.092Z,84.23
2019-01-05T04:51:04.302Z,84.80
2019-01-05T04:54:27.999Z,92.37
2019-01-05T04:57:46.185Z,79.30
2019-01-05T05:01:13.631Z,69.53
2019-01-05T05:04:41.239Z,70.27
2019-01-05T05:08:08.805Z,59.60
2019-01-05T05:11:28.619Z,53.30
2019-01-05T05:14:43.081Z,70.20
2019-01-05T05:18:01.123Z,52.40
2019-01-05T05:21:28.788Z,52.60
2019-01-05T05:24:40.812Z,45.63
2019-01-05T05:28:00.445Z,49.90
2019-01-05T05:31:20.817Z,47.97
2019-01-05T05:34:49.089Z,44.70
2019-01-05T05:38:10.951Z,51.63
2019-01-05T05:41:39.285Z,38.73
2019-01-05T05:44:45.437Z,32.17
2019-01-05T05:48:16.009Z,28.37
2019-01-05T05:51:43.048Z,31.87
2019-01-05T05:55:08.842Z,36.13
2019-01-05T05:58:23.178Z,23.17
2019-01-05T06:01:39.927Z,29.20
2019-01-05T06:04:59.163Z,34.10
2019-01-05T06:08:24.400Z,30.03
2019-01-05T06:11:41.745Z,22.73
2019-01-05T06:15:10.956Z,23.07
2019-01-05T06:18:39.170Z,19.97
2019-01-05T06:22:07.415Z,23.27
2019-01-05T06:25:28.935Z,15.50
2019-01-05T06:28:57.107Z,19.10
2019-01-05T06:32:25.496Z,15.83
2019-01-05T06:35:44.136Z,22.93
2019-01-05T06:39:06.518Z,23.33
2019-01-05T06:42:21.090Z,18.83
2019-01-05T06:45:44.073Z,14.80
2019-01-05T06:49:09.091Z,19.57
2019-01-05T06:52:36.901Z,15.90
2019-01-05T06:56:05.018Z,21.80
2019-01-05T06:59:33.225Z,15.67
2019-01-05T07:02:51.284Z,19.97
2019-01-05T07:06:08.560Z,24.67
2019-01-05T07:09:29.538Z,78.37
2019-01-05T07:12:51.130Z,22.33
2019-01-05T07:16:19.475Z,16.77
2019-01-05T07:19:47.706Z,17.20
2019-01-05T07:23:08.509Z,17.53
2019-01-05T07:26:36.447Z,25.40
2019-01-05T07:30:04.431Z,18.47
2019-01-05T07:33:32.345Z,24.03
2019-01-05T07:36:52.231Z,23.43
2019-01-05T07:40:13.426Z,20.57
2019-01-05T07:43:43.185Z,29.70
2019-01-05T07:47:07.073Z,60.30
2019-01-05T07:50:25.939Z,31.13
2019-01-05T07:53:53.818Z,34.60
2019-01-05T07:57:21.891Z,35.23
2019-01-05T08:00:49.615Z,33.30
2019-01-05T08:03:58.797Z,36.07
2019-01-05T08:07:17.310Z,40.03
2019-01-05T08:10:44.362Z,37.73
2019-01-05T08:14:12.954Z,48.63
2019-01-05T08:17:39.420Z,46.83
2019-01-05T08:21:07.253Z,42.80
2019-01-05T08:24:35.013Z,52.93
2019-01-05T08:27:55.955Z,43.67
2019-01-05T08:31:14.231Z,56.97
2019-01-05T08:34:41.019Z,43.20
2019-01-05T08:38:09.176Z,47.87
2019-01-05T08:41:28.618Z,48.77
2019-01-05T08:44:47.282Z,50.90
2019-01-05T08:48:15.871Z,43.60
2019-01-05T08:51:27.158Z,45.37
2019-01-05T08:54:50.893Z,35.13
2019-01-05T08:58:18.594Z,47.53
2019-01-05T09:01:44.478Z,45.03
2019-01-05T09:05:12.314Z,42.30
2019-01-05T09:08:42.330Z,51.60
2019-01-05T09:12:00.317Z,48.80
2019-01-05T09:15:28.815Z,48.87
2019-01-05T09:18:56.653Z,47.10
2019-01-05T09:22:16.037Z,44.80
2019-01-05T09:25:40.239Z,36.53
2019-01-05T09:29:06.700Z,40.50
2019-01-05T09:32:24.599Z,37.43
2019-01-05T09:35:52.613Z,39.20
2019-01-05T09:39:14.332Z,37.73
2019-01-05T09:42:42.053Z,39.33
2019-01-05T09:46:06.695Z,38.63
2019-01-05T09:49:27.473Z,33.13
2019-01-05T09:52:55.167Z,32.40
2019-01-05T09:56:22.954Z,28.60
2019-01-05T09:59:50.973Z,22.73
2019-01-05T10:02:57.370Z,32.50
2019-01-05T10:06:21.423Z,19.80
2019-01-05T10:09:44.188Z,19.30
2019-01-05T10:13:01.206Z,20.43
2019-01-05T10:16:28.978Z,28.43
2019-01-05T10:19:57.057Z,16.43
2019-01-05T10:23:19.643Z,20.73
2019-01-05T10:27:08.269Z,17.97
2019-01-05T10:30:35.909Z,24.23
2019-01-05T10:34:05.232Z,28.23
2019-01-05T10:37:33.957Z,24.20
2019-01-05T10:41:00.652Z,24.17
2019-01-05T10:44:28.617Z,25.00
2019-01-05T10:47:57.990Z,18.73
2019-01-05T10:51:25.616Z,19.47
2019-01-05T10:54:50.442Z,17.67
2019-01-05T10:58:13.069Z,14.07
2019-01-05T11:01:30.175Z,15.37
2019-01-05T11:04:51.090Z,14.97
2019-01-05T11:08:11.480Z,13.00
2019-01-05T11:11:34.426Z,16.10
2019-01-05T11:14:59.701Z,22.33
2019-01-05T11:18:28.458Z,19.50
2019-01-05T11:21:38.935Z,17.00
2019-01-05T11:24:56.052Z,18.17
2019-01-05T11:28:23.518Z,20.60
2019-01-05T11:31:51.640Z,16.67
2019-01-05T11:35:17.282Z,13.17
2019-01-05T11:38:32.670Z,33.40
2019-01-05T11:41:52.966Z,15.00
2019-01-05T11:45:20.658Z,13.40
2019-01-05T11:48:42.141Z,14.10
2019-01-05T11:52:10.153Z,19.80
2019-01-05T11:55:38.167Z,14.10
2019-01-05T11:58:56.806Z,20.27
2019-01-05T12:02:22.755Z,15.53
2019-01-05T12:05:49.586Z,14.97
2019-01-05T12:09:18.032Z,10.20
2019-01-05T12:12:45.937Z,17.20
2019-01-05T12:16:06.773Z,11.83
2019-01-05T12:19:33.229Z,13.67
2019-01-05T12:23:10.178Z,11.60
2019-01-05T12:26:42.882Z,7.77
2019-01-05T12:30:11.541Z,15.37
2019-01-05T12:33:39.242Z,12.30
2019-01-05T12:36:55.340Z,11.80
2019-01-05T12:40:14.447Z,10.23
2019-01-05T12:43:42.766Z,8.93
2019-01-05T12:47:11.148Z,10.07
2019-01-05T12:50:39.370Z,6.40
2019-01-05T12:54:08.445Z,6.47
2019-01-05T12:57:20.982Z,5.43
2019-01-05T13:00:49.187Z,11.57
2019-01-05T13:04:16.986Z,8.27
2019-01-05T13:07:41.664Z,10.23
2019-01-05T13:10:58.631Z,8.17
2019-01-05T13:14:11.628Z,7.40
2019-01-05T13:17:40.271Z,6.53
2019-01-05T13:21:07.959Z,7.73
2019-01-05T13:24:35.023Z,14.00
2019-01-05T13:28:00.387Z,7.90
2019-01-05T13:31:18.030Z,8.00
2019-01-05T13:34:45.541Z,8.00
2019-01-05T13:38:13.717Z,7.13
2019-01-05T13:41:40.137Z,8.20
2019-01-05T13:45:07.867Z,9.80
2019-01-05T13:48:35.971Z,14.10
2019-01-05T13:51:50.508Z,8.93
2019-01-05T13:54:34.613Z,8.33
2019-01-05T13:57:29.327Z,8.17
2019-01-05T14:00:12.818Z,9.10
2019-01-05T14:03:02.632Z,8.43
2019-01-05T14:05:52.042Z,9.93
2019-01-05T14:08:41.408Z,9.30
2019-01-05T14:11:31.419Z,9.00
2019-01-05T14:14:21.697Z,6.40
2019-01-05T14:17:11.780Z,13.93
2019-01-05T14:20:02.243Z,10.03
2019-01-05T14:22:52.581Z,9.33
2019-01-05T14:25:42.635Z,9.60
2019-01-05T14:28:31.013Z,6.57
2019-01-05T14:31:21.076Z,11.73
2019-01-05T14:34:11.377Z,9.77
2019-01-05T14:37:05.678Z,6.43
2019-01-05T14:39:55.353Z,6.47
2019-01-05T14:42:45.543Z,5.03
2019-01-05T14:45:35.386Z,5.83
2019-01-05T14:48:25.059Z,8.90
2019-01-05T14:51:14.353Z,7.57
2019-01-05T14:54:04.053Z,6.40
2019-01-05T14:56:53.643Z,9.93
2019-01-05T14:59:45.357Z,8.63
2019-01-05T15:02:35.638Z,8.70
2019-01-05T15:05:25.572Z,8.93
2019-01-05T15:08:15.208Z,8.20
2019-01-05T15:11:04.857Z,10.80
2019-01-05T15:13:43.517Z,7.70
2019-01-05T15:16:32.712Z,9.67
2019-01-05T15:19:18.953Z,6.30
2019-01-05T15:22:08.624Z,8.63
2019-01-05T15:24:59.418Z,21.13
2019-01-05T15:27:49.039Z,6.10
2019-01-05T15:30:33.206Z,5.20
2019-01-05T15:33:21.592Z,4.67
2019-01-05T15:36:11.584Z,9.50
2019-01-05T15:39:01.804Z,9.77
2019-01-05T15:41:52.854Z,4.40
2019-01-05T15:44:42.798Z,8.17
2019-01-05T15:47:33.344Z,22.50
2019-01-05T15:50:23.135Z,18.27
2019-01-05T15:53:13.017Z,43.83
2019-01-05T15:55:57.107Z,18.77
2019-01-05T15:58:47.532Z,15.13
2019-01-05T16:01:37.486Z,8.20
2019-01-05T16:04:28.237Z,8.57
2019-01-05T16:07:18.103Z,9.73
2019-01-05T16:10:08.052Z,14.83
2019-01-05T16:12:58.217Z,17.37
2019-01-05T16:15:48.612Z,10.07
2019-01-05T16:18:38.513Z,6.67
2019-01-05T16:21:28.198Z,9.43
2019-01-05T16:24:18.618Z,8.33
2019-01-05T16:27:09.610Z,7.00
2019-01-05T16:29:59.190Z,9.93
2019-01-05T16:32:49.499Z,13.70
2019-01-05T16:35:39.681Z,11.97
2019-01-05T16:38:26.950Z,10.90
2019-01-05T16:41:09.654Z,9.50
2019-01-05T16:43:54.995Z,22.47
2019-01-05T16:46:44.765Z,20.33
2019-01-05T16:49:34.654Z,17.63
2019-01-05T16:52:24.766Z,12.77
2019-01-05T16:55:15.043Z,10.17
2019-01-05T16:58:06.333Z,10.63
2019-01-05T17:00:55.829Z,7.43
2019-01-05T17:03:45.094Z,7.47
2019-01-05T17:06:34.680Z,3.43
2019-01-05T17:09:26.715Z,7.23
2019-01-05T17:12:16.775Z,6.90
2019-01-05T17:15:06.513Z,14.07
2019-01-05T17:17:56.550Z,9.07
2019-01-05T17:20:46.649Z,28.47
2019-01-05T17:23:36.374Z,28.33
2019-01-05T17:26:26.812Z,20.93
2019-01-05T17:29:13.349Z,9.53
2019-01-05T17:32:03.013Z,12.30
2019-01-05T17:34:52.578Z,23.90
2019-01-05T17:37:42.329Z,14.53
2019-01-05T17:40:31.847Z,16.80
2019-01-05T17:43:22.002Z,19.93
2019-01-05T17:46:05.042Z,13.33
2019-01-05T17:48:55.514Z,11.97
2019-01-05T17:51:47.421Z,11.57
2019-01-05T17:54:37.976Z,13.53
2019-01-05T17:57:27.960Z,9.43
2019-01-05T18:00:18.083Z,10.83
2019-01-05T18:03:08.612Z,10.80
2019-01-05T18:05:58.695Z,10.00
2019-01-05T18:08:44.606Z,9.27
2019-01-05T18:11:34.362Z,9.40
2019-01-05T18:14:18.218Z,8.17
2019-01-05T18:17:08.514Z,9.43
2019-01-05T18:19:52.586Z,9.77
2019-01-05T18:22:42.114Z,14.23
2019-01-05T18:25:31.940Z,8.87
2019-01-05T18:28:21.204Z,16.00
2019-01-05T18:31:11.177Z,13.83
2019-01-05T18:34:01.762Z,10.43
2019-01-05T18:36:51.628Z,10.27
2019-01-05T18:39:41.161Z,9.63
2019-01-05T18:42:30.649Z,10.47
2019-01-05T18:45:21.344Z,8.80
2019-01-05T18:48:07.413Z,14.60
2019-01-05T18:50:52.005Z,32.10
2019-01-05T18:53:41.803Z,11.50
2019-01-05T18:56:31.715Z,18.83
2019-01-05T18:59:21.310Z,10.77
2019-01-05T19:02:11.070Z,9.17
2019-01-05T19:05:00.985Z,12.07
2019-01-05T19:07:50.855Z,11.80
2019-01-05T19:10:40.069Z,8.03
2019-01-05T19:13:29.802Z,15.90
2019-01-05T19:16:19.432Z,20.30
2019-01-05T19:19:09.511Z,19.13
2019-01-05T19:21:59.199Z,29.80
2019-01-05T19:24:46.464Z,27.23
2019-01-05T19:27:36.066Z,18.80
2019-01-05T19:30:25.967Z,17.50
2019-01-05T19:33:15.850Z,13.77
2019-01-05T19:36:05.573Z,16.07
2019-01-05T19:38:55.222Z,13.80
2019-01-05T19:41:44.897Z,17.90
2019-01-05T19:44:34.709Z,12.43
2019-01-05T19:47:20.211Z,17.10
2019-01-05T19:50:09.597Z,13.83
2019-01-05T19:52:59.697Z,10.97
2019-01-05T19:55:49.285Z,20.27
2019-01-05T19:58:39.528Z,18.30
2019-01-05T20:01:28.821Z,20.87
2019-01-05T20:04:19.562Z,16.03
2019-01-05T20:07:09.174Z,14.50
2019-01-05T20:09:58.751Z,11.90
2019-01-05T20:12:48.420Z,10.63
2019-01-05T20:15:38.048Z,17.33
2019-01-05T20:18:20.696Z,19.47
2019-01-05T20:21:10.541Z,13.47
2019-01-05T20:23:55.299Z,10.80
2019-01-05T20:26:44.909Z,12.77
2019-01-05T20:29:27.860Z,11.00
2019-01-05T20:32:17.838Z,11.87
2019-01-05T20:35:03.385Z,9.77
2019-01-05T20:37:48.670Z,11.87
2019-01-05T20:40:38.415Z,12.27
2019-01-05T20:43:28.467Z,9.13
2019-01-05T20:46:19.887Z,12.03
2019-01-05T20:49:09.802Z,9.77
2019-01-05T20:52:02.101Z,9.57
2019-01-05T20:54:51.955Z,13.47
2019-01-05T20:57:37.923Z,10.70
2019-01-05T21:00:28.561Z,9.00
2019-01-05T21:03:07.461Z,11.20
2019-01-05T21:05:51.125Z,10.87
2019-01-05T21:08:40.628Z,19.57
2019-01-05T21:11:29.918Z,13.43
2019-01-05T21:14:19.913Z,14.03
2019-01-05T21:17:09.766Z,14.07
2019-01-05T21:20:00.294Z,10.33
2019-01-05T21:22:50.014Z,13.00
2019-01-05T21:25:40.613Z,10.63
2019-01-05T21:28:31.985Z,9.53
2019-01-05T21:31:22.348Z,9.23
2019-01-05T21:34:12.450Z,18.97
2019-01-05T21:37:02.031Z,11.60
2019-01-05T21:39:51.420Z,8.77
2019-01-05T21:42:41.267Z,11.87
2019-01-05T21:45:30.905Z,10.57
2019-01-05T21:48:20.856Z,12.37
2019-01-05T21:51:12.228Z,12.73
2019-01-05T21:54:01.944Z,16.40
2019-01-05T21:56:51.903Z,15.23
2019-01-05T21:59:41.228Z,12.13
2019-01-05T22:02:32.143Z,10.50
2019-01-05T22:05:22.049Z,13.13
2019-01-05T22:08:12.872Z,13.27
2019-01-05T22:11:03.780Z,13.20
2019-01-05T22:13:53.662Z,15.07
2019-01-05T22:16:43.471Z,12.00
2019-01-05T22:19:28.940Z,12.33
2019-01-05T22:22:19.294Z,12.73
2019-01-05T22:25:09.221Z,13.77
2019-01-05T22:28:00.394Z,15.50
2019-01-05T22:30:50.750Z,13.80
2019-01-05T22:33:40.731Z,14.63
2019-01-05T22:36:30.343Z,16.37
2019-01-05T22:39:21.028Z,19.80
2019-01-05T22:42:03.839Z,12.33
2019-01-05T22:44:53.710Z,12.43
2019-01-05T22:47:43.488Z,14.20
2019-01-05T22:50:33.269Z,18.30
2019-01-05T22:53:25.605Z,22.20
2019-01-05T22:56:15.221Z,15.67
2019-01-05T22:59:04.840Z,18.67
2019-01-05T23:01:54.973Z,10.53
2019-01-05T23:04:44.355Z,11.53
2019-01-05T23:07:33.828Z,12.13
2019-01-05T23:10:24.813Z,11.83
2019-01-05T23:13:16.772Z,7.33
2019-01-05T23:16:06.747Z,10.67
2019-01-05T23:18:56.822Z,11.97
2019-01-05T23:21:46.327Z,19.30
2019-01-05T23:24:36.094Z,9.20
2019-01-05T23:27:22.073Z,11.57
2019-01-05T23:30:10.284Z,11.27
2019-01-05T23:32:59.944Z,11.83
2019-01-05T23:35:49.740Z,10.23
2019-01-05T23:38:39.444Z,14.27
2019-01-05T23:41:26.749Z,9.50
2019-01-05T23:44:16.839Z,11.53
2019-01-05T23:47:06.498Z,12.93
2019-01-05T23:49:55.944Z,15.13
2019-01-05T23:52:45.732Z,10.80
2019-01-05T23:55:35.772Z,9.83
2019-01-05T23:58:47.866Z,14.13
